createdAt,value
2018-01-03T00:00:41.411Z,90.07
2018-01-03T00:03:08.873Z,89.93
2018-01-03T00:05:36.296Z,90.35
2018-01-03T00:08:03.727Z,90.14
2018-01-03T00:10:31.189Z,90.09
2018-01-03T00:12:58.608Z,89.91
2018-01-03T00:15:26.028Z,89.97
2018-01-03T00:17:53.465Z,90.28
2018-01-03T00:20:20.880Z,90.15
2018-01-03T00:22:48.313Z,90.08
2018-01-03T00:25:15.751Z,90.30
2018-01-03T00:27:43.180Z,90.30
2018-01-03T00:30:10.613Z,90.40
2018-01-03T00:32:38.051Z,90.63
2018-01-03T00:35:05.471Z,90.80
2018-01-03T00:37:32.887Z,90.56
2018-01-03T00:40:00.339Z,90.31
2018-01-03T00:42:27.752Z,90.09
2018-01-03T00:44:55.174Z,89.83
2018-01-03T00:47:22.628Z,89.58
2018-01-03T00:49:50.049Z,89.65
2018-01-03T00:52:17.459Z,89.63
2018-01-03T00:54:44.899Z,89.58
2018-01-03T00:57:12.320Z,89.62
2018-01-03T00:59:39.740Z,89.60
2018-01-03T01:02:07.164Z,89.54
2018-01-03T01:04:34.591Z,89.48
2018-01-03T01:07:02.035Z,89.56
2018-01-03T01:09:29.443Z,89.56
2018-01-03T01:11:56.883Z,89.43
2018-01-03T01:14:24.295Z,89.32
2018-01-03T01:16:51.703Z,89.32
2018-01-03T01:19:19.146Z,89.00
2018-01-03T01:21:46.548Z,89.12
2018-01-03T01:24:13.959Z,89.02
2018-01-03T01:26:41.395Z,89.13
2018-01-03T01:29:08.804Z,89.14
2018-01-03T01:31:36.211Z,89.14
2018-01-03T01:34:03.658Z,89.10
2018-01-03T01:36:31.080Z,89.19
2018-01-03T01:38:58.525Z,89.32
2018-01-03T01:41:25.940Z,89.20
2018-01-03T01:43:53.395Z,89.23
2018-01-03T01:46:20.825Z,89.24
2018-01-03T01:49:00.216Z,89.12
2018-01-03T01:51:27.646Z,89.14
2018-01-03T01:53:55.056Z,89.14
2018-01-03T01:56:22.469Z,89.04
2018-01-03T01:58:49.914Z,88.95
2018-01-03T02:01:17.316Z,88.91
2018-01-03T02:03:44.737Z,88.84
2018-01-03T02:06:12.164Z,88.65
2018-01-03T02:08:39.585Z,88.59
2018-01-03T02:11:07.020Z,88.36
2018-01-03T02:13:34.431Z,88.37
2018-01-03T02:16:01.843Z,87.92
2018-01-03T02:18:29.288Z,87.81
2018-01-03T02:20:56.728Z,87.65
2018-01-03T02:23:24.144Z,87.36
2018-01-03T02:25:51.576Z,87.40
2018-01-03T02:28:18.980Z,87.09
2018-01-03T02:30:46.413Z,86.86
2018-01-03T02:33:13.832Z,86.70
2018-01-03T02:35:41.255Z,86.32
2018-01-03T02:38:08.701Z,86.14
2018-01-03T02:40:36.118Z,86.19
2018-01-03T02:43:03.526Z,86.21
2018-01-03T02:45:30.964Z,86.23
2018-01-03T02:47:58.384Z,86.25
2018-01-03T02:50:25.808Z,86.28
2018-01-03T02:52:53.232Z,86.29
2018-01-03T02:55:20.647Z,86.32
2018-01-03T02:57:48.075Z,86.21
2018-01-03T03:00:15.507Z,86.39
2018-01-03T03:02:42.915Z,86.41
2018-01-03T03:05:10.337Z,86.35
2018-01-03T03:07:37.776Z,86.13
2018-01-03T03:10:05.195Z,86.11
2018-01-03T03:12:32.616Z,86.23
2018-01-03T03:15:00.041Z,86.05
2018-01-03T03:17:27.484Z,86.16
2018-01-03T03:19:54.893Z,85.92
2018-01-03T03:22:22.314Z,86.00
2018-01-03T03:24:49.734Z,85.87
2018-01-03T03:27:17.131Z,85.87
2018-01-03T03:29:44.530Z,85.94
2018-01-03T03:32:11.979Z,86.21
2018-01-03T03:34:39.427Z,86.12
2018-01-03T03:37:06.830Z,86.16
2018-01-03T03:39:34.338Z,86.27
2018-01-03T03:42:01.746Z,86.01
2018-01-03T03:44:29.181Z,85.99
2018-01-03T03:46:56.569Z,85.92
2018-01-03T03:49:23.966Z,86.02
2018-01-03T03:51:51.385Z,85.93
2018-01-03T03:54:18.816Z,85.83
2018-01-03T03:56:46.242Z,85.62
2018-01-03T03:59:13.645Z,85.49
2018-01-03T04:01:41.147Z,85.49
2018-01-03T04:04:08.555Z,85.34
2018-01-03T04:06:35.959Z,85.28
2018-01-03T04:09:03.380Z,85.18
2018-01-03T04:11:30.780Z,85.01
2018-01-03T04:13:58.200Z,84.87
2018-01-03T04:16:25.604Z,84.88
2018-01-03T04:18:53.005Z,85.07
2018-01-03T04:21:20.413Z,85.04
2018-01-03T04:23:47.843Z,85.55
2018-01-03T04:26:15.252Z,85.82
2018-01-03T04:28:42.657Z,85.91
2018-01-03T04:31:10.063Z,86.16
2018-01-03T04:33:37.580Z,86.56
2018-01-03T04:36:05.140Z,86.56
2018-01-03T04:38:32.600Z,86.58
2018-01-03T04:41:00.017Z,86.68
2018-01-03T04:43:27.523Z,86.63
2018-01-03T04:45:54.926Z,86.70
2018-01-03T04:48:22.425Z,86.97
2018-01-03T05:03:06.750Z,88.92
2018-01-03T05:05:34.217Z,89.37
2018-01-03T05:08:01.617Z,89.31
2018-01-03T05:10:29.047Z,89.05
2018-01-03T05:12:56.455Z,89.26
2018-01-03T05:15:23.940Z,89.41
2018-01-03T05:17:51.354Z,89.46
2018-01-03T05:20:18.850Z,89.45
2018-01-03T05:22:46.280Z,89.08
2018-01-03T05:25:13.691Z,89.45
2018-01-03T05:27:41.094Z,89.15
2018-01-03T05:30:08.541Z,89.51
2018-01-03T05:32:36.039Z,89.02
2018-01-03T05:35:03.467Z,89.39
2018-01-03T05:37:30.936Z,89.70
2018-01-03T05:39:58.362Z,89.88
2018-01-03T05:42:25.771Z,89.67
2018-01-03T05:44:53.174Z,89.83
2018-01-03T05:47:20.603Z,89.99
2018-01-03T05:49:48.006Z,90.23
2018-01-03T05:52:15.416Z,90.54
2018-01-03T05:54:42.902Z,90.51
2018-01-03T05:57:10.325Z,90.66
2018-01-03T05:59:37.742Z,90.94
2018-01-03T06:02:05.184Z,90.91
2018-01-03T06:04:32.600Z,90.97
2018-01-03T06:07:00.012Z,91.08
2018-01-03T06:09:27.480Z,91.09
2018-01-03T06:11:54.896Z,91.48
2018-01-03T06:14:22.314Z,91.28
2018-01-03T06:16:49.752Z,91.43
2018-01-03T06:19:17.180Z,91.72
2018-01-03T06:21:44.591Z,91.81
2018-01-03T06:24:12.021Z,92.35
2018-01-03T06:26:39.450Z,92.46
2018-01-03T06:29:06.878Z,92.64
2018-01-03T06:31:34.292Z,92.78
2018-01-03T06:34:01.724Z,92.99
2018-01-03T06:36:29.140Z,92.85
2018-01-03T06:38:56.591Z,92.84
2018-01-03T06:41:23.998Z,93.05
2018-01-03T06:43:51.411Z,93.12
2018-01-03T06:46:18.842Z,93.21
2018-01-03T06:48:46.256Z,93.20
2018-01-03T06:51:13.683Z,93.37
2018-01-03T06:53:41.102Z,93.65
2018-01-03T06:56:08.524Z,93.60
2018-01-03T06:58:35.948Z,93.78
2018-01-03T07:01:03.462Z,93.94
2018-01-03T07:03:30.909Z,94.18
2018-01-03T07:05:58.320Z,94.39
2018-01-03T07:08:25.727Z,94.45
2018-01-03T07:10:53.280Z,94.52
2018-01-03T07:13:20.678Z,94.46
2018-01-03T07:15:48.074Z,94.47
2018-01-03T07:18:15.486Z,94.60
2018-01-03T07:20:42.958Z,94.48
2018-01-03T07:23:10.393Z,93.88
2018-01-03T07:25:37.801Z,94.10
2018-01-03T07:28:05.211Z,94.33
2018-01-03T07:30:32.639Z,94.47
2018-01-03T07:33:00.095Z,94.51
2018-01-03T07:35:27.644Z,94.45
2018-01-03T07:37:55.060Z,94.26
2018-01-03T07:40:22.480Z,94.52
2018-01-03T07:42:49.878Z,94.72
2018-01-03T07:45:17.305Z,94.84
2018-01-03T07:47:44.736Z,94.80
2018-01-03T07:50:12.151Z,95.09
2018-01-03T07:52:39.553Z,95.16
2018-01-03T07:55:06.990Z,95.16
2018-01-03T07:57:34.410Z,95.18
2018-01-03T08:00:01.918Z,95.18
2018-01-03T08:02:29.335Z,95.12
2018-01-03T08:04:56.759Z,95.28
2018-01-03T08:07:24.164Z,95.41
2018-01-03T08:09:51.632Z,95.51
2018-01-03T08:12:19.038Z,95.32
2018-01-03T08:14:46.450Z,95.16
2018-01-03T08:17:13.906Z,95.27
2018-01-03T08:19:41.366Z,95.14
2018-01-03T08:22:08.773Z,95.20
2018-01-03T08:24:36.185Z,95.18
2018-01-03T08:27:03.579Z,94.80
2018-01-03T08:29:31.096Z,94.52
2018-01-03T08:31:58.566Z,94.46
2018-01-03T08:34:25.999Z,94.51
2018-01-03T08:36:53.455Z,94.28
2018-01-03T08:39:20.847Z,94.23
2018-01-03T08:41:48.291Z,94.17
2018-01-03T08:44:15.802Z,94.09
2018-01-03T08:46:43.212Z,94.09
2018-01-03T08:49:10.645Z,94.00
2018-01-03T08:51:38.064Z,94.17
2018-01-03T08:54:05.479Z,94.11
2018-01-03T08:56:32.906Z,93.88
2018-01-03T08:59:00.315Z,94.12
2018-01-03T09:01:27.735Z,94.10
2018-01-03T09:03:55.192Z,93.79
2018-01-03T09:06:22.648Z,93.59
2018-01-03T09:08:50.112Z,93.79
2018-01-03T09:11:17.571Z,93.69
2018-01-03T09:13:44.990Z,93.65
2018-01-03T09:16:12.404Z,93.89
2018-01-03T09:18:39.814Z,93.39
2018-01-03T09:21:07.284Z,93.48
2018-01-03T09:23:34.693Z,93.38
2018-01-03T09:26:02.207Z,93.43
2018-01-03T09:28:29.631Z,93.47
2018-01-03T09:30:57.029Z,93.39
2018-01-03T09:33:24.434Z,93.10
2018-01-03T09:35:51.859Z,93.03
2018-01-03T09:38:19.267Z,93.16
2018-01-03T09:40:46.731Z,93.05
2018-01-03T09:43:14.167Z,93.08
2018-01-03T09:45:41.562Z,92.86
2018-01-03T09:48:08.992Z,93.02
2018-01-03T09:50:36.456Z,92.92
2018-01-03T09:53:03.871Z,92.78
2018-01-03T09:55:31.277Z,92.87
2018-01-03T09:57:58.764Z,93.02
2018-01-03T10:00:26.260Z,92.84
2018-01-03T10:02:53.659Z,92.53
2018-01-03T10:05:21.058Z,92.49
2018-01-03T10:07:48.554Z,92.35
2018-01-03T10:10:15.965Z,92.17
2018-01-03T10:12:43.371Z,91.91
2018-01-03T10:15:10.828Z,91.86
2018-01-03T10:17:38.234Z,91.88
2018-01-03T10:20:05.642Z,92.00
2018-01-03T10:22:33.060Z,92.04
2018-01-03T10:25:00.460Z,92.04
2018-01-03T10:27:27.874Z,91.95
2018-01-03T10:29:56.333Z,91.83
2018-01-03T10:32:23.765Z,91.96
2018-01-03T10:34:51.172Z,91.65
2018-01-03T10:37:18.620Z,91.85
2018-01-03T10:39:46.027Z,91.33
2018-01-03T10:42:13.443Z,91.50
2018-01-03T10:44:40.888Z,91.71
2018-01-03T10:47:08.307Z,91.74
2018-01-03T10:49:35.721Z,91.31
2018-01-03T10:52:03.164Z,91.27
2018-01-03T10:54:30.584Z,91.55
2018-01-03T10:56:58.039Z,91.40
2018-01-03T10:59:25.536Z,91.11
2018-01-03T11:01:53.029Z,90.90
2018-01-03T11:04:20.443Z,90.65
2018-01-03T11:06:47.895Z,90.12
2018-01-03T11:09:15.310Z,89.72
2018-01-03T11:11:42.713Z,89.36
2018-01-03T11:14:10.991Z,89.29
2018-01-03T11:16:38.426Z,89.33
2018-01-03T11:19:05.867Z,89.05
2018-01-03T11:21:33.272Z,89.07
2018-01-03T11:24:00.696Z,89.31
2018-01-03T11:26:28.142Z,89.39
2018-01-03T11:28:55.578Z,89.27
2018-01-03T11:31:22.998Z,89.26
2018-01-03T11:33:50.428Z,89.24
2018-01-03T11:36:17.836Z,89.57
2018-01-03T11:38:45.251Z,89.47
2018-01-03T11:41:12.675Z,89.30
2018-01-03T11:43:40.097Z,89.00
2018-01-03T11:46:07.529Z,88.13
2018-01-03T11:48:34.947Z,87.69
2018-01-03T11:51:02.393Z,87.61
2018-01-03T11:53:29.818Z,87.75
2018-01-03T11:55:57.269Z,87.71
2018-01-03T11:58:24.698Z,87.51
2018-01-03T12:00:52.111Z,86.38
2018-01-03T12:03:19.553Z,86.20
2018-01-03T12:05:46.959Z,86.20
2018-01-03T12:08:14.392Z,86.24
2018-01-03T12:10:41.831Z,86.16
2018-01-03T12:13:09.244Z,86.21
2018-01-03T12:15:36.727Z,86.74
2018-01-03T12:18:04.295Z,88.06
2018-01-03T12:20:31.716Z,84.80
2018-01-03T12:22:59.117Z,87.39
2018-01-03T12:25:26.558Z,89.61
2018-01-03T12:27:54.276Z,90.71
2018-01-03T12:30:21.687Z,91.56
2018-01-03T12:32:49.101Z,89.93
2018-01-03T12:35:16.535Z,89.62
2018-01-03T12:37:43.941Z,86.73
2018-01-03T12:40:11.348Z,85.66
2018-01-03T12:42:38.797Z,85.47
2018-01-03T12:45:06.248Z,85.66
2018-01-03T12:47:33.666Z,85.85
2018-01-03T12:50:01.094Z,85.77
2018-01-03T12:52:29.334Z,85.51
2018-01-03T12:54:57.364Z,85.82
2018-01-03T12:57:24.800Z,86.09
2018-01-03T12:59:52.219Z,85.61
2018-01-03T13:02:19.632Z,85.70
2018-01-03T13:04:47.088Z,85.41
2018-01-03T13:07:14.500Z,85.01
2018-01-03T13:09:41.932Z,83.91
2018-01-03T13:12:09.353Z,83.54
2018-01-03T13:14:36.795Z,83.05
2018-01-03T13:17:04.203Z,83.59
2018-01-03T13:22:05.408Z,82.60
2018-01-03T13:24:32.823Z,81.97
2018-01-03T13:27:00.234Z,82.28
2018-01-03T13:29:27.654Z,82.59
2018-01-03T13:31:55.122Z,81.53
2018-01-03T13:34:22.527Z,81.52
2018-01-03T13:36:49.999Z,81.86
2018-01-03T13:39:17.405Z,81.75
2018-01-03T13:41:44.838Z,80.82
2018-01-03T13:44:12.251Z,80.89
2018-01-03T13:46:39.667Z,81.60
2018-01-03T13:49:07.143Z,81.75
2018-01-03T13:51:34.539Z,83.00
2018-01-03T13:54:01.945Z,82.61
2018-01-03T13:56:29.362Z,82.90
2018-01-03T13:58:56.787Z,82.54
2018-01-03T14:01:24.236Z,82.24
2018-01-03T14:03:51.636Z,82.72
2018-01-03T14:06:19.051Z,82.98
2018-01-03T14:08:46.483Z,81.96
2018-01-03T14:11:13.892Z,80.85
2018-01-03T14:13:41.324Z,80.78
2018-01-03T14:16:08.780Z,80.18
2018-01-03T14:18:36.199Z,79.36
2018-01-03T14:21:03.702Z,79.29
2018-01-03T14:23:31.139Z,79.56
2018-01-03T14:25:58.620Z,79.78
2018-01-03T14:28:26.096Z,78.99
2018-01-03T14:30:53.524Z,79.17
2018-01-03T14:33:20.981Z,78.62
2018-01-03T14:35:48.437Z,78.55
2018-01-03T14:38:15.889Z,78.24
2018-01-03T14:40:43.350Z,78.53
2018-01-03T14:43:10.776Z,78.78
2018-01-03T14:45:38.200Z,79.15
2018-01-03T14:48:05.596Z,78.97
2018-01-03T14:50:33.000Z,78.77
2018-01-03T14:53:00.438Z,78.92
2018-01-03T14:55:27.858Z,79.53
2018-01-03T14:57:55.258Z,79.24
2018-01-03T15:00:22.701Z,79.39
2018-01-03T15:02:50.148Z,79.45
2018-01-03T15:05:17.567Z,79.64
2018-01-03T15:07:44.960Z,80.26
2018-01-03T15:10:12.379Z,80.29
2018-01-03T15:12:39.807Z,81.37
2018-01-03T15:15:07.214Z,81.30
2018-01-03T15:17:34.618Z,82.44
2018-01-03T15:20:02.045Z,82.65
2018-01-03T15:22:29.522Z,82.98
2018-01-03T15:24:57.800Z,83.87
2018-01-03T15:27:25.207Z,84.43
2018-01-03T15:29:52.682Z,84.76
2018-01-03T15:32:20.170Z,84.56
2018-01-03T15:34:47.632Z,84.57
2018-01-03T15:37:15.078Z,85.25
2018-01-03T15:39:42.531Z,86.06
2018-01-03T15:42:10.016Z,87.00
2018-01-03T15:44:37.439Z,87.44
2018-01-03T15:47:04.878Z,88.17
2018-01-03T15:49:32.290Z,88.44
2018-01-03T15:51:59.681Z,88.94
2018-01-03T15:54:27.204Z,89.49
2018-01-03T15:56:54.660Z,89.60
2018-01-03T15:59:22.078Z,89.52
2018-01-03T16:01:49.569Z,89.92
2018-01-03T16:04:16.970Z,90.57
2018-01-03T16:06:44.382Z,91.02
2018-01-03T16:09:11.809Z,90.86
2018-01-03T16:11:39.294Z,90.69
2018-01-03T16:14:06.702Z,90.81
2018-01-03T16:16:34.132Z,90.70
2018-01-03T16:19:01.547Z,90.14
2018-01-03T16:21:29.025Z,89.75
2018-01-03T16:23:56.477Z,89.78
2018-01-03T16:26:23.875Z,89.58
2018-01-03T16:28:51.278Z,88.95
2018-01-03T16:31:18.725Z,89.14
2018-01-03T16:33:46.111Z,89.02
2018-01-03T16:36:13.523Z,88.68
2018-01-03T16:38:40.950Z,88.53
2018-01-03T16:41:08.366Z,87.78
2018-01-03T16:43:35.776Z,86.84
2018-01-03T16:46:03.454Z,86.95
2018-01-03T16:48:30.948Z,86.76
2018-01-03T16:50:58.377Z,86.48
2018-01-03T16:53:25.778Z,86.75
2018-01-03T16:55:53.196Z,86.64
2018-01-03T16:58:20.626Z,86.65
2018-01-03T17:00:48.120Z,86.04
2018-01-03T17:03:15.505Z,86.61
2018-01-03T17:05:42.951Z,86.92
2018-01-03T17:08:10.358Z,86.58
2018-01-03T17:10:37.783Z,86.35
2018-01-03T17:13:05.214Z,87.40
2018-01-03T17:15:32.654Z,87.68
2018-01-03T17:18:00.056Z,88.10
2018-01-03T17:20:27.496Z,88.20
2018-01-03T17:22:54.929Z,89.15
2018-01-03T17:25:22.331Z,88.99
2018-01-03T17:27:49.771Z,88.80
2018-01-03T17:30:17.177Z,88.87
2018-01-03T17:32:44.583Z,88.68
2018-01-03T17:35:12.012Z,88.86
2018-01-03T17:37:39.406Z,89.17
2018-01-03T17:40:06.818Z,89.16
2018-01-03T17:42:34.239Z,88.44
2018-01-03T17:45:01.749Z,88.14
2018-01-03T17:47:29.147Z,88.62
2018-01-03T17:49:56.552Z,88.57
2018-01-03T17:52:23.974Z,88.34
2018-01-03T17:54:51.374Z,88.79
2018-01-03T17:57:18.819Z,88.83
2018-01-03T17:59:46.265Z,88.96
2018-01-03T18:02:13.670Z,88.69
2018-01-03T18:04:41.082Z,88.68
2018-01-03T18:07:08.532Z,88.97
2018-01-03T18:09:35.946Z,88.82
2018-01-03T18:12:03.343Z,88.38
2018-01-03T18:14:30.774Z,88.80
2018-01-03T18:16:58.183Z,88.57
2018-01-03T18:19:25.592Z,88.69
2018-01-03T18:21:53.012Z,88.83
2018-01-03T18:24:20.410Z,89.26
2018-01-03T18:26:47.894Z,89.14
2018-01-03T18:29:15.347Z,89.59
2018-01-03T18:31:44.055Z,89.54
2018-01-03T18:34:11.500Z,89.34
2018-01-03T18:36:38.931Z,89.08
2018-01-03T18:39:06.393Z,88.87
2018-01-03T18:41:33.808Z,89.21
2018-01-03T18:44:01.325Z,89.19
2018-01-03T18:46:28.770Z,88.60
2018-01-03T18:48:56.179Z,88.56
2018-01-03T18:51:23.975Z,88.35
2018-01-03T18:53:51.384Z,88.13
2018-01-03T18:56:18.782Z,87.98
2018-01-03T18:58:46.207Z,87.75
2018-01-03T19:01:13.622Z,87.78
2018-01-03T19:03:41.188Z,87.53
2018-01-03T19:06:08.586Z,87.85
2018-01-03T19:08:36.769Z,87.47
2018-01-03T19:11:04.207Z,87.81
2018-01-03T19:13:31.623Z,87.81
2018-01-03T19:15:59.037Z,87.67
2018-01-03T19:18:26.457Z,87.78
2018-01-03T19:20:53.867Z,87.77
2018-01-03T19:23:21.312Z,87.94
2018-01-03T19:25:48.760Z,87.51
2018-01-03T19:28:16.179Z,88.13
2018-01-03T19:30:43.615Z,88.01
2018-01-03T19:33:11.055Z,87.96
2018-01-03T19:35:38.461Z,87.63
2018-01-03T19:38:05.884Z,87.59
2018-01-03T19:40:33.340Z,87.68
2018-01-03T19:43:00.752Z,87.87
2018-01-03T19:45:28.191Z,88.10
2018-01-03T19:47:55.605Z,87.83
2018-01-03T19:50:23.006Z,88.09
2018-01-03T19:52:50.434Z,87.94
2018-01-03T19:55:17.876Z,87.62
2018-01-03T19:57:45.283Z,87.09
2018-01-03T20:00:12.805Z,87.08
2018-01-03T20:02:40.204Z,87.22
2018-01-03T20:05:07.721Z,87.59
2018-01-03T20:07:35.352Z,86.98
2018-01-03T20:10:02.836Z,86.98
2018-01-03T20:12:30.254Z,87.37
2018-01-03T20:14:57.769Z,86.95
2018-01-03T20:17:25.194Z,86.29
2018-01-03T20:19:52.924Z,85.64
2018-01-03T20:22:20.396Z,85.45
2018-01-03T20:24:47.850Z,85.37
2018-01-03T20:27:15.260Z,84.85
2018-01-03T20:29:42.788Z,85.42
2018-01-03T20:32:10.746Z,84.27
2018-01-03T20:34:38.207Z,84.05
2018-01-03T20:37:05.821Z,83.91
2018-01-03T20:39:33.243Z,83.94
2018-01-03T20:42:00.686Z,84.56
2018-01-03T20:44:28.179Z,84.92
2018-01-03T20:46:55.607Z,84.62
2018-01-03T20:49:23.527Z,85.12
2018-01-03T20:51:50.979Z,84.57
2018-01-03T20:54:18.392Z,85.24
2018-01-03T20:56:45.797Z,85.43
2018-01-03T20:59:13.230Z,86.57
2018-01-03T21:01:40.634Z,86.35
2018-01-03T21:04:08.059Z,86.52
2018-01-03T21:06:35.487Z,87.03
2018-01-03T21:09:03.000Z,87.11
2018-01-03T21:11:30.416Z,87.28
2018-01-03T21:13:57.848Z,87.54
2018-01-03T21:16:25.288Z,87.34
2018-01-03T21:18:52.694Z,86.77
2018-01-03T21:21:20.129Z,87.27
2018-01-03T21:23:47.548Z,87.41
2018-01-03T21:26:14.959Z,87.63
2018-01-03T21:28:42.488Z,87.66
2018-01-03T21:31:09.903Z,87.57
2018-01-03T21:33:37.421Z,87.54
2018-01-03T21:36:04.854Z,87.23
2018-01-03T21:38:32.295Z,87.40
2018-01-03T21:40:59.701Z,86.70
2018-01-03T21:43:27.097Z,87.31
2018-01-03T21:45:54.599Z,86.62
2018-01-03T21:48:22.003Z,86.88
2018-01-03T21:50:49.424Z,87.06
2018-01-03T21:53:16.851Z,86.95
2018-01-03T21:55:44.251Z,87.12
2018-01-03T21:58:11.652Z,86.91
2018-01-03T22:00:39.099Z,86.92
2018-01-03T22:03:06.520Z,86.39
2018-01-03T22:05:33.924Z,86.88
2018-01-03T22:08:01.386Z,86.37
2018-01-03T22:10:28.808Z,85.97
2018-01-03T22:12:56.199Z,86.49
2018-01-03T22:15:23.684Z,86.42
2018-01-03T22:17:51.103Z,86.39
2018-01-03T22:20:19.503Z,86.06
2018-01-03T22:22:46.927Z,85.29
2018-01-03T22:25:14.335Z,85.17
2018-01-03T22:27:41.770Z,83.76
2018-01-03T22:30:09.213Z,83.32
2018-01-03T22:32:36.660Z,83.25
2018-01-03T22:35:04.091Z,82.27
2018-01-03T22:37:31.512Z,82.38
2018-01-03T22:39:58.913Z,82.43
2018-01-03T22:42:26.331Z,82.20
2018-01-03T22:44:53.739Z,81.54
2018-01-03T22:47:21.236Z,81.36
2018-01-03T22:49:48.658Z,82.16
2018-01-03T22:52:16.173Z,81.10
2018-01-03T22:54:43.575Z,80.37
2018-01-03T22:57:11.072Z,81.24
2018-01-03T22:59:38.544Z,81.14
2018-01-03T23:02:05.967Z,81.20
2018-01-03T23:04:33.387Z,80.76
2018-01-03T23:07:00.809Z,80.93
2018-01-03T23:09:28.238Z,80.98
2018-01-03T23:11:55.643Z,81.66
2018-01-03T23:14:23.047Z,81.85
2018-01-03T23:16:50.476Z,81.78
2018-01-03T23:19:17.911Z,81.90
2018-01-03T23:21:45.307Z,82.05
2018-01-03T23:24:12.740Z,81.77
2018-01-03T23:26:40.145Z,81.33
2018-01-03T23:29:07.610Z,80.68
2018-01-03T23:31:35.048Z,81.69
2018-01-03T23:34:02.442Z,79.99
2018-01-03T23:36:29.888Z,78.97
2018-01-03T23:38:57.320Z,77.81
2018-01-03T23:41:24.720Z,77.64
2018-01-03T23:43:52.124Z,77.33
2018-01-03T23:46:19.566Z,76.56
2018-01-03T23:48:46.971Z,76.78
2018-01-03T23:51:14.385Z,76.47
2018-01-03T23:53:41.801Z,77.04
2018-01-03T23:56:09.194Z,77.21
2018-01-03T23:58:36.616Z,76.75
